Time;durP1;ratioP1;P1;durP2;ratioP2;P2;SDS_P1;SDS_P2;PMS_P1;PMS_P2;Temp;Humidity;BMP_temperature;BMP_pressure;BME280_temperature;BME280_humidity;BME280_pressure;Samples;Min_cycle;Max_cycle;Signal;HPM_P1;HPM_P2
2024/02/01 00:01:10;;;;;;;19.90;4.30;;;8.10;99.90;;;;;;5078284;28;20216;-80
2024/02/01 00:03:36;;;;;;;21.30;3.78;;;8.10;99.90;;;;;;5075682;28;20190;-79
2024/02/01 00:06:02;;;;;;;17.20;3.73;;;8.20;99.90;;;;;;5077399;28;20161;-80
2024/02/01 00:08:27;;;;;;;19.80;4.40;;;8.30;99.90;;;;;;5076746;28;20665;-81
2024/02/01 00:10:53;;;;;;;19.17;4.27;;;8.40;99.90;;;;;;5079691;28;20676;-80
2024/02/01 00:13:19;;;;;;;20.47;4.27;;;8.50;99.90;;;;;;5078172;28;20248;-80
2024/02/01 00:15:44;;;;;;;20.00;3.87;;;8.50;99.90;;;;;;5078091;28;20190;-79
2024/02/01 00:18:10;;;;;;;19.23;4.00;;;8.50;99.90;;;;;;5076004;28;20342;-79
2024/02/01 00:20:36;;;;;;;19.77;4.30;;;8.50;99.90;;;;;;5078709;28;20160;-80
2024/02/01 00:23:01;;;;;;;20.13;4.20;;;8.50;99.90;;;;;;5077311;28;20173;-80
2024/02/01 00:25:30;;;;;;;19.80;4.00;;;8.60;99.90;;;;;;5079902;28;20168;-80
2024/02/01 00:27:56;;;;;;;18.23;4.22;;;8.60;99.90;;;;;;5077421;28;20181;-79
2024/02/01 00:30:22;;;;;;;20.27;4.38;;;8.60;99.90;;;;;;5075628;28;20168;-80
2024/02/01 00:32:48;;;;;;;18.47;3.63;;;8.60;99.90;;;;;;5077329;28;20168;-80
2024/02/01 00:35:13;;;;;;;18.90;4.07;;;8.60;99.90;;;;;;5078068;28;20456;-81
2024/02/01 00:37:39;;;;;;;17.77;4.10;;;8.60;99.90;;;;;;5079632;28;20185;-80
2024/02/01 00:40:05;;;;;;;24.40;3.47;;;8.60;99.90;;;;;;5079587;28;20169;-80
2024/02/01 00:42:31;;;;;;;20.27;4.20;;;8.60;99.90;;;;;;5076748;28;20196;-81
2024/02/01 00:44:57;;;;;;;18.77;4.47;;;8.60;99.90;;;;;;5077021;28;20164;-81
2024/02/01 00:47:22;;;;;;;21.97;4.00;;;8.60;99.90;;;;;;5077013;28;20219;-79
2024/02/01 00:49:48;;;;;;;21.30;4.90;;;8.70;99.90;;;;;;5080616;28;20168;-80
2024/02/01 00:52:13;;;;;;;23.30;4.40;;;8.70;99.90;;;;;;5080306;28;20179;-80
2024/02/01 00:54:39;;;;;;;16.97;3.37;;;8.70;99.90;;;;;;5081392;28;20243;-80
2024/02/01 00:57:05;;;;;;;18.57;4.13;;;8.70;99.90;;;;;;5082186;28;20340;-80
2024/02/01 00:59:30;;;;;;;19.20;4.20;;;8.70;99.90;;;;;;5081542;28;20180;-81
2024/02/01 01:01:56;;;;;;;17.57;4.17;;;8.80;99.90;;;;;;5079759;28;20196;-79
2024/02/01 01:04:22;;;;;;;19.67;4.00;;;8.80;99.90;;;;;;5081170;28;20165;-81
2024/02/01 01:06:47;;;;;;;21.23;4.23;;;8.80;99.90;;;;;;5082209;28;20662;-79
2024/02/01 01:09:13;;;;;;;21.67;4.63;;;8.80;99.90;;;;;;5080202;28;20625;-80
2024/02/01 01:11:39;;;;;;;21.93;4.40;;;8.80;99.90;;;;;;5081071;28;20169;-80
2024/02/01 01:14:05;;;;;;;19.87;5.20;;;8.80;99.90;;;;;;5081423;28;20446;-81
2024/02/01 01:16:30;;;;;;;20.60;4.87;;;8.80;99.90;;;;;;5078219;28;20233;-80
2024/02/01 01:18:56;;;;;;;22.33;4.23;;;8.80;99.90;;;;;;5080736;28;20493;-81
2024/02/01 01:21:23;;;;;;;21.50;5.03;;;8.80;99.90;;;;;;5082152;28;20561;-81
2024/02/01 01:23:49;;;;;;;19.80;4.75;;;8.80;99.90;;;;;;5080826;28;20172;-80
2024/02/01 01:26:20;;;;;;;20.90;4.60;;;8.80;99.90;;;;;;5079680;28;20182;-80
2024/02/01 01:28:46;;;;;;;17.98;4.60;;;8.80;99.90;;;;;;5078395;28;20145;-81
2024/02/01 01:31:11;;;;;;;20.53;4.37;;;8.80;99.90;;;;;;5077333;28;20263;-80
2024/02/01 01:33:37;;;;;;;18.40;4.27;;;8.80;99.90;;;;;;5080355;28;20172;-80
2024/02/01 01:36:03;;;;;;;20.30;4.87;;;8.90;99.90;;;;;;5078491;28;20168;-80
2024/02/01 01:38:29;;;;;;;20.43;4.10;;;8.80;99.90;;;;;;5078945;28;20598;-80
2024/02/01 01:40:54;;;;;;;17.90;4.13;;;8.80;99.90;;;;;;5079815;28;20449;-79
2024/02/01 01:43:20;;;;;;;22.97;4.23;;;8.80;99.90;;;;;;5077126;28;20164;-79
2024/02/01 01:45:53;;;;;;;19.03;5.07;;;8.80;99.90;;;;;;5078859;28;20161;-79
2024/02/01 01:48:18;;;;;;;17.75;4.43;;;8.70;99.90;;;;;;5079211;28;20173;-79
2024/02/01 01:50:44;;;;;;;18.60;4.07;;;8.70;99.90;;;;;;5079202;28;20245;-79
2024/02/01 01:53:10;;;;;;;23.23;4.73;;;8.70;99.90;;;;;;5076910;28;20171;-79
2024/02/01 01:55:36;;;;;;;20.27;4.67;;;8.60;99.90;;;;;;5076271;28;20188;-80
2024/02/01 01:58:02;;;;;;;18.80;4.90;;;8.60;99.90;;;;;;5076457;28;20249;-79
2024/02/01 02:00:28;;;;;;;25.03;4.50;;;8.60;99.90;;;;;;5075556;28;20566;-79
2024/02/01 02:02:54;;;;;;;19.77;4.37;;;8.50;99.90;;;;;;5077402;28;20955;-79
2024/02/01 02:05:20;;;;;;;18.10;4.32;;;8.50;99.90;;;;;;5077824;28;20809;-79
2024/02/01 02:07:47;;;;;;;22.50;4.90;;;8.50;99.90;;;;;;5077096;28;20223;-81
2024/02/01 02:10:14;;;;;;;20.42;5.07;;;8.50;99.90;;;;;;5077275;28;20633;-79
2024/02/01 02:12:42;;;;;;;17.20;4.38;;;8.50;99.90;;;;;;5076258;28;20253;-81
2024/02/01 02:15:09;;;;;;;22.20;4.25;;;8.50;99.90;;;;;;5076105;28;20184;-79
2024/02/01 02:17:34;;;;;;;20.27;4.68;;;8.50;99.90;;;;;;5077734;28;20185;-80
2024/02/01 02:20:15;;;;;;;18.47;4.40;;;8.50;99.90;;;;;;5076920;28;20187;-78
2024/02/01 02:22:42;;;;;;;18.60;4.00;;;8.50;99.90;;;;;;5074072;28;20188;-79
2024/02/01 02:25:09;;;;;;;22.52;4.47;;;8.50;99.90;;;;;;5075542;28;20166;-80
2024/02/01 02:27:35;;;;;;;20.38;4.85;;;8.50;99.90;;;;;;5075172;28;20661;-78
2024/02/01 02:30:01;;;;;;;22.70;4.43;;;8.50;99.90;;;;;;5075577;28;20164;-81
2024/02/01 02:32:27;;;;;;;20.07;5.50;;;8.40;99.90;;;;;;5076522;28;20176;-78
2024/02/01 02:34:53;;;;;;;18.37;4.10;;;8.40;99.90;;;;;;5075235;28;20220;-80
2024/02/01 02:37:19;;;;;;;18.90;4.63;;;8.40;99.90;;;;;;5076828;28;20190;-80
2024/02/01 02:39:45;;;;;;;19.60;5.35;;;8.40;99.90;;;;;;5076236;28;20165;-80
2024/02/01 02:42:11;;;;;;;18.90;4.40;;;8.40;99.90;;;;;;5075045;28;20192;-79
2024/02/01 02:44:36;;;;;;;19.90;4.73;;;8.40;99.90;;;;;;5075670;28;20682;-79
2024/02/01 02:47:02;;;;;;;20.73;5.90;;;8.40;99.90;;;;;;5075668;28;20199;-79
2024/02/01 02:49:28;;;;;;;17.33;4.17;;;8.40;99.90;;;;;;5076156;28;20507;-79
2024/02/01 02:51:53;;;;;;;19.53;4.47;;;8.40;99.90;;;;;;5075414;28;20399;-79
2024/02/01 02:54:19;;;;;;;17.80;4.57;;;8.40;99.90;;;;;;5073664;28;20176;-79
2024/02/01 02:56:44;;;;;;;26.10;4.30;;;8.40;99.90;;;;;;5075114;28;20562;-80
2024/02/01 02:59:10;;;;;;;20.40;5.23;;;8.40;99.90;;;;;;5075984;28;20641;-79
2024/02/01 03:01:36;;;;;;;18.23;4.40;;;8.40;99.90;;;;;;5076331;28;20245;-80
2024/02/01 03:04:01;;;;;;;18.97;4.37;;;8.40;99.90;;;;;;5075862;28;20554;-80
2024/02/01 03:06:27;;;;;;;19.73;4.30;;;8.40;99.90;;;;;;5075944;28;20168;-81
2024/02/01 03:08:53;;;;;;;20.20;4.10;;;8.30;99.90;;;;;;5074370;28;20165;-81
2024/02/01 03:11:18;;;;;;;19.17;4.73;;;8.40;99.90;;;;;;5075449;28;20172;-79
2024/02/01 03:13:47;;;;;;;20.60;4.27;;;8.40;99.90;;;;;;5075267;28;20241;-80
2024/02/01 03:16:20;;;;;;;18.65;4.63;;;8.40;99.90;;;;;;5075050;28;20203;-80
2024/02/01 03:18:47;;;;;;;19.60;4.22;;;8.40;99.90;;;;;;5075485;28;20157;-79
2024/02/01 03:21:14;;;;;;;19.35;4.60;;;8.30;99.90;;;;;;5074789;28;20194;-80
2024/02/01 03:23:45;;;;;;;19.33;5.10;;;8.30;99.90;;;;;;5073525;28;20169;-79
2024/02/01 03:26:11;;;;;;;18.25;3.60;;;8.40;99.90;;;;;;5074254;28;20164;-79
2024/02/01 03:28:41;;;;;;;18.95;4.53;;;8.40;99.90;;;;;;5072960;28;20192;-79
2024/02/01 03:31:07;;;;;;;22.80;4.22;;;8.40;99.90;;;;;;5074828;28;20222;-80
2024/02/01 03:33:39;;;;;;;20.25;3.90;;;8.40;99.90;;;;;;5075143;28;20221;-80
2024/02/01 03:36:11;;;;;;;20.15;3.83;;;8.30;99.90;;;;;;5074942;28;20145;-80
2024/02/01 03:38:40;;;;;;;17.10;3.53;;;8.40;99.90;;;;;;5074287;28;20199;-81
2024/02/01 03:41:05;;;;;;;18.85;4.38;;;8.40;99.90;;;;;;5073953;28;20210;-79
2024/02/01 03:43:31;;;;;;;16.87;3.40;;;8.40;99.90;;;;;;5074049;28;20689;-79
2024/02/01 03:45:57;;;;;;;17.53;3.50;;;8.40;99.90;;;;;;5075376;28;20164;-79
2024/02/01 03:48:23;;;;;;;17.92;3.80;;;8.40;99.90;;;;;;5074263;28;20177;-80
2024/02/01 03:50:50;;;;;;;19.20;3.60;;;8.40;99.90;;;;;;5073860;28;20164;-81
2024/02/01 03:53:16;;;;;;;17.55;3.90;;;8.40;99.90;;;;;;5074070;28;20456;-79
2024/02/01 03:55:48;;;;;;;17.98;4.05;;;8.40;99.90;;;;;;5075189;28;20165;-79
2024/02/01 03:58:16;;;;;;;18.60;3.85;;;8.40;99.90;;;;;;5074201;28;20200;-79
2024/02/01 04:00:43;;;;;;;16.83;3.60;;;8.40;99.90;;;;;;5074258;28;20153;-81
2024/02/01 04:03:14;;;;;;;24.63;4.40;;;8.50;99.90;;;;;;5074729;28;20172;-79
2024/02/01 04:05:41;;;;;;;20.67;3.55;;;8.50;99.90;;;;;;5074553;28;20194;-79
2024/02/01 04:08:08;;;;;;;18.10;3.85;;;8.50;99.90;;;;;;5073830;28;20208;-79
2024/02/01 04:10:34;;;;;;;17.13;3.58;;;8.50;99.90;;;;;;5072875;28;20222;-79
2024/02/01 04:13:05;;;;;;;16.58;3.00;;;8.50;99.90;;;;;;5072472;28;20259;-80
2024/02/01 04:15:31;;;;;;;16.38;3.17;;;8.50;99.90;;;;;;5073214;28;20168;-80
2024/02/01 04:17:57;;;;;;;17.63;4.10;;;8.50;99.90;;;;;;5073770;28;20202;-79
2024/02/01 04:20:23;;;;;;;16.53;3.27;;;8.50;99.90;;;;;;5074528;28;20169;-80
2024/02/01 04:22:55;;;;;;;17.05;3.55;;;8.60;99.90;;;;;;5075154;28;20184;-79
2024/02/01 04:25:23;;;;;;;17.85;3.65;;;8.60;99.90;;;;;;5078983;28;20209;-80
2024/02/01 04:27:49;;;;;;;16.02;3.03;;;8.60;99.90;;;;;;5077909;28;20176;-80
2024/02/01 04:30:19;;;;;;;16.13;3.22;;;8.60;99.90;;;;;;5079565;28;20614;-80
2024/02/01 04:32:46;;;;;;;17.45;3.85;;;8.60;99.90;;;;;;5076405;28;20176;-79
2024/02/01 04:35:12;;;;;;;17.00;3.50;;;8.60;99.90;;;;;;5076598;28;20180;-79
2024/02/01 04:37:42;;;;;;;16.33;3.50;;;8.60;99.90;;;;;;5077212;28;20196;-80
2024/02/01 04:40:09;;;;;;;17.23;3.30;;;8.60;99.90;;;;;;5080211;28;20659;-80
2024/02/01 04:42:35;;;;;;;16.80;3.08;;;8.60;99.90;;;;;;5079014;28;20196;-79
2024/02/01 04:45:04;;;;;;;18.27;4.00;;;8.60;99.90;;;;;;5077164;28;20168;-79
2024/02/01 04:47:37;;;;;;;16.52;3.75;;;8.60;99.90;;;;;;5079076;28;20191;-79
2024/02/01 04:50:04;;;;;;;18.38;4.18;;;8.60;99.90;;;;;;5077199;28;20167;-80
2024/02/01 04:52:31;;;;;;;17.65;3.78;;;8.60;99.90;;;;;;5079238;28;20536;-81
2024/02/01 04:55:00;;;;;;;16.92;3.85;;;8.60;99.90;;;;;;5078994;28;20176;-80
2024/02/01 04:57:25;;;;;;;18.35;3.53;;;8.60;99.90;;;;;;5077157;28;20224;-79
2024/02/01 04:59:51;;;;;;;18.23;4.27;;;8.60;99.90;;;;;;5078272;28;20192;-80
2024/02/01 05:02:17;;;;;;;17.90;4.00;;;8.60;99.90;;;;;;5077087;28;20188;-80
2024/02/01 05:04:43;;;;;;;16.50;3.47;;;8.60;99.90;;;;;;5077102;28;20164;-79
2024/02/01 05:07:12;;;;;;;17.27;3.17;;;8.60;99.90;;;;;;5075483;28;20584;-81
2024/02/01 05:09:39;;;;;;;19.10;5.07;;;8.60;99.90;;;;;;5079654;28;20153;-80
2024/02/01 05:12:09;;;;;;;17.05;4.00;;;8.70;99.90;;;;;;5077396;28;20218;-80
2024/02/01 05:14:37;;;;;;;18.55;4.50;;;8.70;99.90;;;;;;5077048;28;20218;-79
2024/02/01 05:17:04;;;;;;;18.98;4.20;;;8.70;99.90;;;;;;5076492;28;20184;-80
2024/02/01 05:19:30;;;;;;;18.58;4.53;;;8.70;99.90;;;;;;5076007;28;20172;-79
2024/02/01 05:21:55;;;;;;;18.07;4.53;;;8.70;99.90;;;;;;5076625;28;20192;-80
2024/02/01 05:24:22;;;;;;;18.27;4.10;;;8.70;99.90;;;;;;5076379;28;20399;-81
2024/02/01 05:26:53;;;;;;;17.15;4.05;;;8.70;99.90;;;;;;5075975;28;20423;-80
2024/02/01 05:29:20;;;;;;;20.27;5.68;;;8.70;99.90;;;;;;5076670;28;20510;-80
2024/02/01 05:31:55;;;;;;;18.65;4.85;;;8.70;99.90;;;;;;5077698;28;20173;-80
2024/02/01 05:34:22;;;;;;;20.45;6.68;;;8.70;99.90;;;;;;5076701;28;20176;-80
2024/02/01 05:36:51;;;;;;;19.13;6.18;;;8.70;99.90;;;;;;5076966;28;20184;-80
2024/02/01 05:39:30;;;;;;;20.83;5.72;;;8.80;99.90;;;;;;5076179;28;20203;-81
2024/02/01 05:41:57;;;;;;;18.02;5.68;;;8.80;99.90;;;;;;5077219;28;20279;-80
2024/02/01 05:44:25;;;;;;;22.67;5.47;;;8.80;99.90;;;;;;5077656;28;20161;-81
2024/02/01 05:46:55;;;;;;;19.50;4.88;;;8.80;99.90;;;;;;5077191;28;20180;-80
2024/02/01 05:49:30;;;;;;;19.63;5.75;;;8.90;99.90;;;;;;5075724;28;20526;-80
2024/02/01 05:52:00;;;;;;;18.90;5.18;;;8.80;99.90;;;;;;5075791;28;20187;-81
2024/02/01 05:54:26;;;;;;;21.58;5.50;;;8.80;99.90;;;;;;5075856;28;20149;-80
2024/02/01 05:56:52;;;;;;;17.47;4.50;;;8.80;99.90;;;;;;5075842;28;20280;-80
2024/02/01 05:59:20;;;;;;;19.30;5.27;;;8.90;99.90;;;;;;5075481;28;20246;-80
2024/02/01 06:01:46;;;;;;;18.65;5.35;;;8.80;99.90;;;;;;5077451;28;20191;-80
2024/02/01 06:04:13;;;;;;;19.00;5.93;;;8.90;99.90;;;;;;5075949;28;20160;-80
2024/02/01 06:06:43;;;;;;;19.40;6.05;;;8.90;99.90;;;;;;5078079;28;20693;-80
2024/02/01 06:09:11;;;;;;;19.65;5.70;;;8.80;99.90;;;;;;5078311;28;20153;-80
2024/02/01 06:11:40;;;;;;;22.40;6.72;;;8.90;99.90;;;;;;5078223;28;20171;-80
2024/02/01 06:14:06;;;;;;;19.40;6.30;;;8.90;99.90;;;;;;5074763;28;20172;-79
2024/02/01 06:16:32;;;;;;;19.53;6.03;;;8.90;99.90;;;;;;5077488;28;20175;-80
2024/02/01 06:18:58;;;;;;;22.73;7.23;;;8.90;99.90;;;;;;5077239;28;20436;-80
2024/02/01 06:21:24;;;;;;;21.97;7.13;;;8.90;99.90;;;;;;5075965;28;20222;-80
2024/02/01 06:23:53;;;;;;;23.80;8.15;;;8.90;99.90;;;;;;5077520;28;20160;-80
2024/02/01 06:26:25;;;;;;;22.40;8.00;;;8.90;99.90;;;;;;5077414;28;20188;-80
2024/02/01 06:28:53;;;;;;;23.73;8.00;;;8.90;99.90;;;;;;5077955;28;20244;-81
2024/02/01 06:31:19;;;;;;;22.52;8.23;;;9.00;99.90;;;;;;5076072;28;20164;-81
2024/02/01 06:33:50;;;;;;;22.58;8.23;;;8.90;99.90;;;;;;5076460;28;20199;-81
2024/02/01 06:36:19;;;;;;;26.85;7.60;;;8.90;99.90;;;;;;5079897;28;20610;-81
2024/02/01 06:41:41;;;;;;;25.77;9.25;;;8.90;99.90;;;;;;5079546;28;20180;-80
2024/02/01 06:54:53;;;;;;;26.92;9.20;;;8.90;99.90;;;;;;5077614;28;20557;-80
2024/02/01 06:57:22;;;;;;;25.73;10.10;;;8.90;99.90;;;;;;5076800;28;20196;-81
2024/02/01 07:02:35;;;;;;;28.67;10.25;;;8.80;99.90;;;;;;5076246;28;20180;-81
2024/02/01 07:05:21;;;;;;;29.52;10.65;;;8.80;99.90;;;;;;5078183;28;20136;-81
2024/02/01 07:07:50;;;;;;;28.85;10.45;;;8.80;99.90;;;;;;5078235;28;20203;-81
2024/02/01 07:10:21;;;;;;;31.15;12.10;;;8.80;99.90;;;;;;5079427;28;20160;-82
2024/02/01 07:15:31;;;;;;;41.33;11.32;;;8.80;99.90;;;;;;5083862;28;20640;-82
2024/02/01 07:18:14;;;;;;;26.33;9.43;;;8.70;99.90;;;;;;5084420;28;20208;-82
2024/02/01 07:20:46;;;;;;;25.73;8.50;;;8.70;99.90;;;;;;5082225;28;20834;-80
2024/02/01 07:25:48;;;;;;;26.90;9.45;;;8.60;99.90;;;;;;5084430;28;20641;-82
2024/02/01 07:58:23;;;;;;;19.83;4.15;;;8.10;99.90;;;;;;5087007;28;20206;-82
2024/02/01 08:00:53;;;;;;;22.55;4.47;;;8.10;99.90;;;;;;5088111;28;20175;-81
2024/02/01 08:03:32;;;;;;;23.30;4.55;;;8.10;99.90;;;;;;5089622;28;20208;-81
2024/02/01 08:08:43;;;;;;;20.80;4.78;;;8.20;99.90;;;;;;5085844;28;20187;-80
2024/02/01 08:11:09;;;;;;;21.75;4.35;;;8.20;99.90;;;;;;5085294;28;20168;-81
2024/02/01 08:13:36;;;;;;;21.50;4.70;;;8.20;99.90;;;;;;5085447;28;20688;-80
2024/02/01 08:16:02;;;;;;;25.83;4.73;;;8.20;99.90;;;;;;5082512;28;20257;-81
2024/02/01 08:18:34;;;;;;;25.88;4.32;;;8.10;99.90;;;;;;5084785;28;20242;-81
2024/02/01 08:21:03;;;;;;;31.17;3.95;;;8.00;99.90;;;;;;5085820;28;20145;-80
2024/02/01 08:23:29;;;;;;;22.67;3.72;;;8.00;99.90;;;;;;5085284;28;20162;-80
2024/02/01 08:26:02;;;;;;;20.13;2.90;;;7.90;99.90;;;;;;5085323;28;20184;-80
2024/02/01 08:28:32;;;;;;;20.95;3.47;;;7.80;99.90;;;;;;5087075;28;20955;-82
2024/02/01 08:31:08;;;;;;;27.23;3.38;;;7.80;99.90;;;;;;5089814;28;20232;-81
2024/02/01 08:33:42;;;;;;;19.92;3.13;;;7.80;99.90;;;;;;5088042;28;20158;-82
2024/02/01 08:36:10;;;;;;;27.95;3.78;;;7.70;99.90;;;;;;5088490;28;20614;-80
2024/02/01 08:38:36;;;;;;;20.42;2.92;;;7.70;99.90;;;;;;5082197;28;20202;-81
2024/02/01 08:41:03;;;;;;;18.27;2.35;;;7.60;99.90;;;;;;5082345;28;20228;-80
2024/02/01 08:43:29;;;;;;;20.88;3.20;;;7.60;99.90;;;;;;5082411;28;20191;-80
2024/02/01 08:45:55;;;;;;;21.60;3.13;;;7.50;99.90;;;;;;5084860;28;20214;-82
2024/02/01 08:48:24;;;;;;;27.55;3.05;;;7.50;99.90;;;;;;5091190;28;20176;-82
2024/02/01 08:50:52;;;;;;;29.20;2.85;;;7.50;99.90;;;;;;5089409;28;20160;-82
2024/02/01 08:53:19;;;;;;;21.75;2.80;;;7.40;99.90;;;;;;5089926;28;20164;-82
2024/02/01 08:55:51;;;;;;;21.45;3.08;;;7.40;99.90;;;;;;5090080;28;20168;-82
2024/02/01 08:58:18;;;;;;;27.55;3.67;;;7.30;99.90;;;;;;5091182;28;20200;-82
2024/02/01 09:00:44;;;;;;;28.85;2.83;;;7.30;99.90;;;;;;5091267;28;20180;-82
2024/02/01 09:03:17;;;;;;;29.00;3.27;;;7.40;99.90;;;;;;5091660;28;20215;-82
2024/02/01 09:05:44;;;;;;;25.25;2.72;;;7.40;99.90;;;;;;5091817;28;20430;-82
2024/02/01 09:08:16;;;;;;;21.00;2.88;;;7.40;99.90;;;;;;5092214;28;20184;-82
2024/02/01 09:10:57;;;;;;;20.38;2.42;;;7.40;99.90;;;;;;5092554;28;20153;-82
2024/02/01 09:13:24;;;;;;;30.30;3.83;;;7.40;99.90;;;;;;5092228;28;20144;-82
2024/02/01 09:15:51;;;;;;;39.58;3.50;;;7.40;99.90;;;;;;5092306;28;20165;-82
2024/02/01 09:18:18;;;;;;;24.92;2.75;;;7.50;99.90;;;;;;5093324;28;20668;-82
2024/02/01 09:20:44;;;;;;;24.10;2.80;;;7.40;99.90;;;;;;5091382;28;20163;-82
2024/02/01 09:23:13;;;;;;;34.40;4.60;;;7.40;99.90;;;;;;5092245;28;20282;-82
2024/02/01 09:25:42;;;;;;;29.80;3.85;;;7.50;99.90;;;;;;5091055;28;20172;-82
2024/02/01 09:28:12;;;;;;;26.42;3.35;;;7.50;99.90;;;;;;5090625;28;20238;-83
2024/02/01 09:30:45;;;;;;;24.55;3.30;;;7.50;99.90;;;;;;5092027;28;20183;-82
2024/02/01 09:33:12;;;;;;;24.60;3.10;;;7.60;99.90;;;;;;5091931;28;20168;-82
2024/02/01 09:35:38;;;;;;;21.13;3.08;;;7.60;99.90;;;;;;5090934;28;20179;-82
2024/02/01 09:38:03;;;;;;;30.47;2.67;;;7.50;99.90;;;;;;5091048;28;20180;-82
2024/02/01 09:40:30;;;;;;;20.83;2.30;;;7.60;99.90;;;;;;5091777;28;20164;-82
2024/02/01 09:42:55;;;;;;;20.33;2.80;;;7.60;99.90;;;;;;5091062;28;20192;-82
2024/02/01 09:45:29;;;;;;;28.90;2.87;;;7.70;99.90;;;;;;5089914;28;20529;-82
2024/02/01 09:47:56;;;;;;;20.83;2.97;;;7.70;99.90;;;;;;5091609;28;20180;-82
2024/02/01 09:50:23;;;;;;;36.15;2.72;;;7.70;99.90;;;;;;5088999;28;20168;-83
2024/02/01 09:52:51;;;;;;;31.25;3.83;;;7.80;99.90;;;;;;5091680;28;20188;-82
2024/02/01 09:55:19;;;;;;;29.73;3.17;;;8.00;99.90;;;;;;5089986;28;20176;-82
2024/02/01 09:57:49;;;;;;;29.27;3.45;;;7.90;99.90;;;;;;5089578;28;20554;-81
2024/02/01 10:00:18;;;;;;;23.58;2.95;;;8.00;99.90;;;;;;5088232;28;20175;-83
2024/02/01 10:02:54;;;;;;;32.72;3.33;;;8.00;99.90;;;;;;5089336;28;20197;-82
2024/02/01 10:05:22;;;;;;;22.27;3.00;;;8.20;99.90;;;;;;5090707;28;20598;-82
2024/02/01 10:07:48;;;;;;;21.98;2.38;;;8.30;99.90;;;;;;5091215;28;20308;-82
2024/02/01 10:10:15;;;;;;;22.70;2.75;;;8.30;99.90;;;;;;5089967;28;20186;-82
2024/02/01 10:12:42;;;;;;;23.48;2.50;;;8.30;99.90;;;;;;5089483;28;20192;-82
2024/02/01 10:15:12;;;;;;;23.98;2.67;;;8.40;99.90;;;;;;5090256;28;20165;-82
2024/02/01 10:17:48;;;;;;;23.15;3.72;;;8.40;99.90;;;;;;5090815;28;20187;-82
2024/02/01 10:20:49;;;;;;;22.45;2.65;;;8.50;99.90;;;;;;5090104;28;20164;-82
2024/02/01 10:23:16;;;;;;;19.58;2.22;;;8.50;95.40;;;;;;5090058;28;20184;-82
2024/02/01 10:26:00;;;;;;;17.95;2.30;;;8.50;99.20;;;;;;5089927;28;20167;-82
2024/02/01 10:28:33;;;;;;;26.98;3.03;;;8.60;99.80;;;;;;5088013;28;20187;-81
2024/02/01 10:31:00;;;;;;;28.67;3.45;;;8.50;94.40;;;;;;5088940;28;20160;-81
2024/02/01 10:33:30;;;;;;;23.50;2.80;;;8.60;94.30;;;;;;5088939;28;20168;-82
2024/02/01 10:35:59;;;;;;;27.48;3.38;;;8.60;95.40;;;;;;5089081;28;20157;-82
2024/02/01 10:38:26;;;;;;;32.50;3.58;;;8.70;93.20;;;;;;5090374;28;20196;-81
2024/02/01 10:41:10;;;;;;;26.98;3.55;;;8.80;92.20;;;;;;5088855;28;20169;-82
2024/02/01 10:43:46;;;;;;;23.73;2.80;;;8.80;94.50;;;;;;5089825;28;20151;-82
2024/02/01 10:46:28;;;;;;;28.63;3.72;;;8.70;95.40;;;;;;5090348;28;20144;-82
2024/02/01 10:49:24;;;;;;;22.05;2.60;;;8.60;95.30;;;;;;5090095;28;20144;-82
2024/02/01 10:51:50;;;;;;;26.50;2.90;;;8.50;96.70;;;;;;5088635;28;20160;-82
2024/02/01 10:54:18;;;;;;;31.13;4.00;;;8.40;96.40;;;;;;5089953;28;20171;-82
2024/02/01 10:56:44;;;;;;;21.65;3.53;;;8.20;98.40;;;;;;5089504;28;20189;-82
2024/02/01 10:59:11;;;;;;;27.45;3.50;;;8.20;99.90;;;;;;5089931;28;20553;-82
2024/02/01 11:01:39;;;;;;;28.42;3.13;;;8.20;99.90;;;;;;5088867;28;20615;-82
2024/02/01 11:04:08;;;;;;;24.60;2.95;;;8.10;99.90;;;;;;5088440;28;20171;-82
2024/02/01 11:06:36;;;;;;;31.95;3.35;;;8.10;99.90;;;;;;5088421;28;20228;-82
2024/02/01 11:09:26;;;;;;;20.13;3.13;;;8.00;99.90;;;;;;5089548;28;20191;-82
2024/02/01 11:11:51;;;;;;;23.88;2.95;;;8.10;99.90;;;;;;5088807;28;20189;-82
2024/02/01 11:14:31;;;;;;;34.63;4.15;;;8.00;99.90;;;;;;5088175;28;20245;-82
2024/02/01 11:16:59;;;;;;;20.88;2.50;;;8.20;99.90;;;;;;5090643;28;20630;-82
2024/02/01 11:19:30;;;;;;;23.55;3.40;;;8.40;99.90;;;;;;5089390;28;20171;-82
2024/02/01 11:21:57;;;;;;;35.95;3.33;;;8.70;99.90;;;;;;5089014;28;20207;-81
2024/02/01 11:24:26;;;;;;;34.83;3.17;;;8.90;97.90;;;;;;5089279;28;20232;-82
2024/02/01 11:26:57;;;;;;;24.65;2.72;;;9.10;99.80;;;;;;5087344;28;20191;-82
2024/02/01 11:29:25;;;;;;;22.65;2.85;;;9.20;92.90;;;;;;5090209;28;20232;-84
2024/02/01 11:32:00;;;;;;;26.48;3.95;;;9.20;93.10;;;;;;5088428;28;20168;-82
2024/02/01 11:34:27;;;;;;;23.50;3.90;;;9.30;90.20;;;;;;5089315;28;20168;-81
2024/02/01 11:36:56;;;;;;;22.10;2.47;;;9.40;76.40;;;;;;5089547;28;20202;-82
2024/02/01 11:39:22;;;;;;;23.48;3.65;;;9.40;43.80;;;;;;5088262;28;20164;-82
2024/02/01 11:41:52;;;;;;;22.60;3.30;;;9.60;16.40;;;;;;5090463;28;20188;-82
2024/02/01 11:44:19;;;;;;;30.63;3.85;;;9.70;6.80;;;;;;5088359;28;20394;-82
2024/02/01 11:46:47;;;;;;;24.48;3.90;;;9.80;1.00;;;;;;5090694;28;20191;-82
2024/02/01 11:49:17;;;;;;;29.92;3.05;;;10.00;1.00;;;;;;5089534;28;20160;-82
2024/02/01 11:51:52;;;;;;;27.25;3.60;;;10.10;1.00;;;;;;5089925;28;20157;-82
2024/02/01 11:54:19;;;;;;;26.30;4.55;;;10.20;1.00;;;;;;5090522;28;20148;-82
2024/02/01 11:56:45;;;;;;;23.50;3.38;;;10.20;1.00;;;;;;5089038;28;20189;-82
2024/02/01 11:59:11;;;;;;;21.10;2.97;;;10.30;1.00;;;;;;5089509;28;20176;-82
2024/02/01 12:01:37;;;;;;;23.38;2.97;;;10.50;1.00;;;;;;5090713;28;20438;-83
2024/02/01 12:04:06;;;;;;;22.48;2.53;;;10.50;1.00;;;;;;5091099;28;20213;-82
2024/02/01 12:06:32;;;;;;;22.40;2.40;;;10.60;1.00;;;;;;5089799;28;20175;-82
2024/02/01 12:08:59;;;;;;;21.03;2.50;;;10.70;1.00;;;;;;5091143;28;20173;-82
2024/02/01 12:11:29;;;;;;;26.90;3.45;;;10.80;1.00;;;;;;5091673;28;20195;-82
2024/02/01 12:14:00;;;;;;;18.98;2.55;;;10.90;1.00;;;;;;5091224;28;20153;-82
2024/02/01 12:16:30;;;;;;;19.83;2.20;;;11.00;1.00;;;;;;5089766;28;20227;-82
2024/02/01 12:18:59;;;;;;;25.80;2.95;;;11.00;1.00;;;;;;5089797;28;20163;-82
2024/02/01 12:21:28;;;;;;;24.65;2.90;;;11.00;1.00;;;;;;5089887;28;20210;-82
2024/02/01 12:23:58;;;;;;;26.77;3.42;;;10.90;1.00;;;;;;5090641;28;20161;-82
2024/02/01 12:26:27;;;;;;;21.67;2.40;;;10.70;1.00;;;;;;5089783;28;20202;-82
2024/02/01 12:28:54;;;;;;;22.60;2.80;;;10.60;1.00;;;;;;5088683;28;20180;-82
2024/02/01 12:31:20;;;;;;;23.92;2.65;;;10.40;1.00;;;;;;5089132;28;20164;-82
2024/02/01 12:33:47;;;;;;;21.58;2.92;;;10.40;1.00;;;;;;5089675;28;20164;-81
2024/02/01 12:36:13;;;;;;;18.10;2.25;;;10.30;1.00;;;;;;5090817;28;20161;-82
2024/02/01 12:38:44;;;;;;;21.30;2.70;;;10.20;1.00;;;;;;5090133;28;20204;-83
2024/02/01 12:41:11;;;;;;;21.23;2.13;;;10.30;1.00;;;;;;5088588;28;20145;-83
2024/02/01 12:43:37;;;;;;;22.85;2.97;;;10.30;1.00;;;;;;5089691;28;20236;-82
2024/02/01 12:46:03;;;;;;;18.52;2.35;;;10.30;1.00;;;;;;5092570;28;20165;-82
2024/02/01 12:48:29;;;;;;;22.47;2.20;;;10.20;1.00;;;;;;5092992;28;20185;-81
2024/02/01 12:50:55;;;;;;;20.70;2.85;;;10.20;1.00;;;;;;5094476;28;20156;-82
2024/02/01 12:53:22;;;;;;;27.93;2.77;;;10.00;1.00;;;;;;5094133;28;20157;-83
2024/02/01 12:55:48;;;;;;;25.20;2.78;;;10.00;1.00;;;;;;5094109;28;20400;-82
2024/02/01 12:58:18;;;;;;;19.88;2.22;;;9.90;1.00;;;;;;5091539;28;20207;-82
2024/02/01 13:00:44;;;;;;;23.02;3.22;;;9.80;1.00;;;;;;5093294;28;20165;-82
2024/02/01 13:03:10;;;;;;;29.38;2.65;;;9.70;1.00;;;;;;5093385;28;20203;-82
2024/02/01 13:05:36;;;;;;;22.00;2.20;;;9.70;1.00;;;;;;5093010;28;20186;-83
2024/02/01 13:08:04;;;;;;;27.70;3.37;;;9.60;1.00;;;;;;5092310;28;20177;-83
2024/02/01 13:10:38;;;;;;;20.48;2.28;;;9.70;1.00;;;;;;5094023;28;20395;-82
2024/02/01 13:13:06;;;;;;;21.67;2.90;;;9.70;1.00;;;;;;5093240;28;20152;-83
2024/02/01 13:15:32;;;;;;;27.98;2.83;;;9.70;1.00;;;;;;5092525;28;20652;-81
2024/02/01 13:17:58;;;;;;;23.45;3.60;;;9.70;1.00;;;;;;5091604;28;20192;-82
2024/02/01 13:20:26;;;;;;;18.03;2.20;;;9.70;1.00;;;;;;5091734;28;20160;-82
2024/02/01 13:22:53;;;;;;;20.13;2.55;;;9.70;1.00;;;;;;5093287;28;20212;-82
2024/02/01 13:25:19;;;;;;;24.67;3.50;;;9.70;1.00;;;;;;5092401;28;20160;-82
2024/02/01 13:27:47;;;;;;;23.95;3.85;;;9.80;1.00;;;;;;5092033;28;20184;-82
2024/02/01 13:30:13;;;;;;;21.25;2.85;;;9.80;1.00;;;;;;5091798;28;20189;-82
2024/02/01 13:32:39;;;;;;;21.80;3.20;;;9.80;1.00;;;;;;5092202;28;20169;-83
2024/02/01 13:35:08;;;;;;;26.57;2.97;;;9.70;1.00;;;;;;5089763;28;20199;-82
2024/02/01 13:37:34;;;;;;;29.33;2.83;;;9.70;1.00;;;;;;5090873;28;20274;-82
2024/02/01 13:40:05;;;;;;;24.25;4.13;;;9.70;1.00;;;;;;5091248;28;20164;-81
2024/02/01 13:42:32;;;;;;;22.13;2.95;;;9.70;1.00;;;;;;5090188;28;20173;-81
2024/02/01 13:44:59;;;;;;;20.42;2.45;;;9.80;1.00;;;;;;5089412;28;20156;-82
2024/02/01 13:47:25;;;;;;;24.85;3.08;;;9.90;1.00;;;;;;5089131;28;20173;-81